| time (UTC) | temp F | wind direction | speed knots | gust knots | rain 1hr in | rain 24hr in | rain mn in | humidity % | barometer mb |
| 20260509151003 | 68 | 110 | 4.3 | 7.0 | 0.00 | 0.00 | 0.00 | 53 | 1016.0 |
| 20260509150503 | 68 | 99 | 5.2 | 8.7 | 0.00 | 0.00 | 0.00 | 52 | 1016.0 |
| 20260509150004 | 68 | 96 | 5.2 | 11.3 | 0.00 | 0.00 | 0.00 | 53 | 1016.1 |
| 20260509145503 | 68 | 95 | 5.2 | 10.4 | 0.00 | 0.00 | 0.00 | 54 | 1016.0 |
| 20260509145003 | 68 | 58 | 4.3 | 7.0 | 0.00 | 0.00 | 0.00 | 53 | 1016.1 |
| 20260509144503 | 68 | 96 | 4.3 | 10.4 | 0.00 | 0.00 | 0.00 | 53 | 1016.1 |
| 20260509144004 | 68 | 92 | 3.5 | 7.8 | 0.00 | 0.00 | 0.00 | 54 | 1016.1 |
| 20260509143004 | 68 | 89 | 5.2 | 10.4 | 0.00 | 0.00 | 0.00 | 53 | 1016.1 |
| 20260509142503 | 68 | 86 | 3.5 | 8.7 | 0.00 | 0.00 | 0.00 | 55 | 1016.1 |
| 20260509142004 | 68 | 75 | 2.6 | 6.1 | 0.00 | 0.00 | 0.00 | 54 | 1016.1 |
| 20260509141003 | 68 | 107 | 4.3 | 10.4 | 0.00 | 0.00 | 0.00 | 54 | 1016.2 |
| 20260509140503 | 69 | 92 | 4.3 | 10.4 | 0.00 | 0.00 | 0.00 | 52 | 1016.2 |
| 20260509140004 | 69 | 100 | 6.1 | 11.3 | 0.00 | 0.00 | 0.00 | 51 | 1016.2 |
| 20260509135504 | 69 | 108 | 5.2 | 10.4 | 0.00 | 0.00 | 0.00 | 54 | 1016.2 |
| 20260509135004 | 69 | 63 | 4.3 | 7.8 | 0.00 | 0.00 | 0.00 | 54 | 1016.2 |
| 20260509134504 | 69 | 86 | 7.8 | 12.2 | 0.00 | 0.00 | 0.00 | 51 | 1016.2 |
| 20260509134004 | 69 | 108 | 4.3 | 10.4 | 0.00 | 0.00 | 0.00 | 51 | 1016.2 |
| 20260509133503 | 69 | 91 | 4.3 | 8.7 | 0.00 | 0.00 | 0.00 | 53 | 1016.1 |
| 20260509133004 | 69 | 91 | 4.3 | 7.0 | 0.00 | 0.00 | 0.00 | 53 | 1016.2 |
| 20260509132504 | 69 | 100 | 4.3 | 8.7 | 0.00 | 0.00 | 0.00 | 53 | 1016.2 |
| 20260509132004 | 69 | 94 | 5.2 | 8.7 | 0.00 | 0.00 | 0.00 | 52 | 1016.2 |
| 20260509131503 | 69 | 118 | 5.2 | 8.7 | 0.00 | 0.00 | 0.00 | 51 | 1016.3 |
| 20260509131003 | 69 | 126 | 6.1 | 10.4 | 0.00 | 0.00 | 0.00 | 50 | 1016.3 |
| 20260509130504 | 68 | 92 | 6.1 | 10.4 | 0.00 | 0.00 | 0.00 | 52 | 1016.3 |
| 20260509125503 | 68 | 88 | 5.2 | 10.4 | 0.00 | 0.00 | 0.00 | 52 | 1016.4 |
| 20260509125003 | 69 | 110 | 5.2 | 7.8 | 0.00 | 0.00 | 0.00 | 51 | 1016.3 |
| 20260509124503 | 69 | 52 | 3.5 | 8.7 | 0.00 | 0.00 | 0.00 | 54 | 1016.4 |
| 20260509124004 | 69 | 71 | 4.3 | 10.4 | 0.00 | 0.00 | 0.00 | 50 | 1016.4 |
| 20260509123503 | 70 | 75 | 4.3 | 8.7 | 0.00 | 0.00 | 0.00 | 50 | 1016.5 |
| 20260509122505 | 70 | 109 | 6.1 | 10.4 | 0.00 | 0.00 | 0.00 | 52 | 1016.6 |
| 20260509122004 | 70 | 89 | 4.3 | 8.7 | 0.00 | 0.00 | 0.00 | 54 | 1016.7 |
| 20260509121504 | 70 | 116 | 5.2 | 13.0 | 0.00 | 0.00 | 0.00 | 50 | 1016.6 |
| 20260509121004 | 70 | 84 | 4.3 | 8.7 | 0.00 | 0.00 | 0.00 | 54 | 1016.7 |
| 20260509120503 | 69 | 114 | 5.2 | 11.3 | 0.00 | 0.00 | 0.00 | 53 | 1016.7 |
| 20260509115503 | 69 | 72 | 4.3 | 11.3 | 0.00 | 0.00 | 0.00 | 55 | 1016.8 |
| 20260509115003 | 69 | 98 | 5.2 | 10.4 | 0.00 | 0.00 | 0.00 | 54 | 1016.9 |
| 20260509114504 | 69 | 92 | 4.3 | 10.4 | 0.00 | 0.00 | 0.00 | 56 | 1016.9 |
| 20260509114003 | 69 | 88 | 5.2 | 10.4 | 0.00 | 0.00 | 0.00 | 52 | 1016.9 |
| 20260509113504 | 69 | 85 | 3.5 | 7.8 | 0.00 | 0.00 | 0.00 | 58 | 1017.0 |
| 20260509113003 | 68 | 55 | 4.3 | 10.4 | 0.00 | 0.00 | 0.00 | 57 | 1017.1 |
| 20260509112504 | 68 | 57 | 5.2 | 8.7 | 0.00 | 0.00 | 0.00 | 56 | 1017.1 |
| 20260509112003 | 67 | 103 | 4.3 | 8.7 | 0.00 | 0.00 | 0.00 | 54 | 1017.2 |
| 20260509111003 | 67 | 82 | 6.1 | 10.4 | 0.00 | 0.00 | 0.00 | 54 | 1017.3 |
| 20260509110503 | 67 | 92 | 4.3 | 11.3 | 0.00 | 0.00 | 0.00 | 55 | 1017.3 |
| 20260509110004 | 67 | 78 | 5.2 | 10.4 | 0.00 | 0.00 | 0.00 | 54 | 1017.3 |
| 20260509105504 | 66 | 104 | 3.5 | 8.7 | 0.00 | 0.00 | 0.00 | 57 | 1017.3 |
| 20260509104504 | 66 | 76 | 5.2 | 10.4 | 0.00 | 0.00 | 0.00 | 54 | 1017.4 |
| 20260509104003 | 66 | 119 | 6.1 | 10.4 | 0.00 | 0.00 | 0.00 | 56 | 1017.4 |
| 20260509103503 | 67 | 96 | 6.1 | 10.4 | 0.00 | 0.00 | 0.00 | 55 | 1017.4 |
| 20260509102504 | 66 | 104 | 4.3 | 8.7 | 0.00 | 0.00 | 0.00 | 57 | 1017.5 |
| 20260509102004 | 66 | 65 | 7.0 | 10.4 | 0.00 | 0.00 | 0.00 | 55 | 1017.5 |
| 20260509101004 | 66 | 81 | 4.3 | 10.4 | 0.00 | 0.00 | 0.00 | 58 | 1017.5 |
| 20260509100505 | 65 | 107 | 3.5 | 10.4 | 0.00 | 0.00 | 0.00 | 59 | 1017.5 |
| 20260509100005 | 65 | 109 | 6.1 | 10.4 | 0.00 | 0.00 | 0.00 | 58 | 1017.5 |
| 20260509095503 | 64 | 89 | 6.1 | 7.8 | 0.00 | 0.00 | 0.00 | 58 | 1017.6 |
| 20260509095004 | 64 | 113 | 5.2 | 8.7 | 0.00 | 0.00 | 0.00 | 58 | 1017.6 |
| 20260509094504 | 64 | 109 | 7.0 | 10.4 | 0.00 | 0.00 | 0.00 | 56 | 1017.6 |
| 20260509093503 | 64 | 107 | 5.2 | 10.4 | 0.00 | 0.00 | 0.00 | 57 | 1017.6 |
| 20260509093003 | 64 | 96 | 3.5 | 7.8 | 0.00 | 0.00 | 0.00 | 60 | 1017.6 |
| 20260509092503 | 64 | 108 | 4.3 | 8.7 | 0.00 | 0.00 | 0.00 | 58 | 1017.6 |
| 20260509092004 | 64 | 90 | 6.1 | 10.4 | 0.00 | 0.00 | 0.00 | 58 | 1017.6 |
| 20260509091504 | 64 | 78 | 5.2 | 8.7 | 0.00 | 0.00 | 0.00 | 57 | 1017.5 |
| 20260509091004 | 64 | 95 | 5.2 | 8.7 | 0.00 | 0.00 | 0.00 | 59 | 1017.5 |
| 20260509090503 | 64 | 92 | 5.2 | 7.8 | 0.00 | 0.00 | 0.00 | 58 | 1017.6 |
| 20260509090004 | 64 | 98 | 2.6 | 7.0 | 0.00 | 0.00 | 0.00 | 61 | 1017.5 |
| 20260509085504 | 64 | 127 | 3.5 | 7.0 | 0.00 | 0.00 | 0.00 | 63 | 1017.6 |
| 20260509085004 | 64 | 123 | 5.2 | 8.7 | 0.00 | 0.00 | 0.00 | 60 | 1017.5 |
| 20260509084005 | 63 | 102 | 5.2 | 7.8 | 0.00 | 0.00 | 0.00 | 62 | 1017.5 |
| 20260509083004 | 63 | 90 | 5.2 | 8.7 | 0.00 | 0.00 | 0.00 | 61 | 1017.5 |
| 20260509082503 | 63 | 77 | 2.6 | 7.8 | 0.00 | 0.00 | 0.00 | 65 | 1017.5 |
| 20260509082004 | 63 | 56 | 4.3 | 7.8 | 0.00 | 0.00 | 0.00 | 64 | 1017.5 |
| 20260509081504 | 62 | 64 | 2.6 | 6.1 | 0.00 | 0.00 | 0.00 | 63 | 1017.6 |
| 20260509081004 | 62 | 80 | 2.6 | 7.0 | 0.00 | 0.00 | 0.00 | 66 | 1017.7 |
| 20260509080004 | 61 | 74 | 2.6 | 8.7 | 0.00 | 0.00 | 0.00 | 66 | 1017.7 |
| 20260509075505 | 61 | 92 | 4.3 | 7.8 | 0.00 | 0.00 | 0.00 | 66 | 1017.7 |
| 20260509075004 | 61 | 93 | 2.6 | 7.0 | 0.00 | 0.00 | 0.00 | 67 | 1017.7 |
| 20260509074505 | 60 | 97 | 2.6 | 6.1 | 0.00 | 0.00 | 0.00 | 67 | 1017.7 |
| 20260509074003 | 60 | 121 | 1.7 | 2.6 | 0.00 | 0.00 | 0.00 | 71 | 1017.7 |
| 20260509073503 | 59 | 121 | 0.9 | 2.6 | 0.00 | 0.00 | 0.00 | 72 | 1017.7 |
| 20260509073006 | 58 | 121 | 0.9 | 2.6 | 0.00 | 0.00 | 0.00 | 72 | 1017.7 |
| 20260509072004 | 57 | 123 | 0.9 | 2.6 | 0.00 | 0.00 | 0.00 | 78 | 1017.7 |
| 20260509071004 | 55 | 109 | 1.7 | 2.6 | 0.00 | 0.00 | 0.00 | 82 | 1017.6 |
| 20260509070503 | 54 | 109 | 0.9 | 2.6 | 0.00 | 0.00 | 0.00 | 85 | 1017.7 |
| 20260509065503 | 51 | 109 | 1.7 | 2.6 | 0.00 | 0.00 | 0.00 | 89 | 1017.6 |
| 20260509065003 | 51 | 109 | 0.9 | 1.7 | 0.00 | 0.00 | 0.00 | 89 | 1017.6 |
| 20260509064504 | 50 | 109 | 0.0 | 1.7 | 0.00 | 0.00 | 0.00 | 90 | 1017.6 |
| 20260509064004 | 50 | 109 | 0.9 | 2.6 | 0.00 | 0.00 | 0.00 | 91 | 1017.7 |
| 20260509063504 | 49 | 109 | 1.7 | 2.6 | 0.00 | 0.00 | 0.00 | 91 | 1017.7 |
| 20260509063004 | 49 | 109 | 1.7 | 2.6 | 0.00 | 0.00 | 0.00 | 91 | 1017.6 |
| 20260509062504 | 48 | 110 | 0.9 | 2.6 | 0.00 | 0.00 | 0.00 | 92 | 1017.6 |
| 20260509062003 | 48 | 110 | 0.9 | 2.6 | 0.00 | 0.00 | 0.00 | 92 | 1017.5 |
| 20260509061505 | 47 | 110 | 0.9 | 1.7 | 0.00 | 0.00 | 0.00 | 93 | 1017.5 |
| 20260509061004 | 47 | 111 | 0.9 | 1.7 | 0.00 | 0.00 | 0.00 | 93 | 1017.5 |
| 20260509060504 | 46 | 111 | 0.9 | 2.6 | 0.00 | 0.00 | 0.00 | 93 | 1017.5 |
| 20260509060004 | 46 | 111 | 0.0 | 0.0 | 0.00 | 0.00 | 0.00 | 92 | 1017.5 |
| 20260509055504 | 45 | 111 | 0.0 | 0.0 | 0.00 | 0.00 | 0.00 | 92 | 1017.4 |
| 20260509054004 | 44 | 111 | 0.0 | 0.9 | 0.00 | 0.00 | 0.00 | 92 | 1017.4 |
| 20260509053505 | 44 | 108 | 0.0 | 0.9 | 0.00 | 0.00 | 0.00 | 92 | 1017.4 |
| 20260509053003 | 43 | 188 | 0.9 | 0.9 | 0.00 | 0.00 | 0.00 | 92 | 1017.4 |
| 20260509052503 | 43 | 188 | 0.0 | 1.7 | 0.00 | 0.00 | 0.00 | 91 | 1017.3 |
| 20260509052004 | 43 | 188 | 0.0 | 1.7 | 0.00 | 0.00 | 0.00 | 91 | 1017.3 |
| 20260509051503 | 43 | 188 | 0.9 | 1.7 | 0.00 | 0.00 | 0.00 | 91 | 1017.4 |
| 20260509051004 | 43 | 188 | 0.0 | 1.7 | 0.00 | 0.00 | 0.00 | 91 | 1017.3 |
| 20260509050503 | 42 | 188 | 0.0 | 0.0 | 0.00 | 0.00 | 0.00 | 90 | 1017.3 |
| 20260509050004 | 42 | 185 | 0.0 | 0.0 | 0.00 | 0.00 | 0.00 | 90 | 1017.3 |
| 20260509045503 | 42 | 185 | 0.0 | 0.0 | 0.00 | 0.00 | 0.00 | 90 | 1017.3 |
| 20260509045004 | 42 | 185 | 0.0 | 1.7 | 0.00 | 0.00 | 0.00 | 90 | 1017.4 |
| 20260509044504 | 42 | 161 | 0.9 | 1.7 | 0.00 | 0.00 | 0.00 | 90 | 1017.4 |
| 20260509044003 | 42 | 132 | 0.0 | 0.9 | 0.00 | 0.00 | 0.00 | 90 | 1017.4 |
| 20260509043003 | 43 | 132 | 0.0 | 0.9 | 0.00 | 0.00 | 0.00 | 90 | 1017.4 |
| 20260509042505 | 43 | 127 | 0.0 | 1.7 | 0.00 | 0.00 | 0.00 | 89 | 1017.4 |
| 20260509042004 | 43 | 122 | 0.0 | 0.9 | 0.00 | 0.00 | 0.00 | 90 | 1017.3 |
| 20260509041504 | 43 | 122 | 0.0 | 0.9 | 0.00 | 0.00 | 0.00 | 89 | 1017.3 |
| 20260509041004 | 43 | 122 | 0.0 | 1.7 | 0.00 | 0.00 | 0.00 | 89 | 1017.3 |
| 20260509040504 | 43 | 122 | 0.0 | 1.7 | 0.00 | 0.00 | 0.00 | 89 | 1017.2 |
| 20260509040004 | 43 | 122 | 0.0 | 1.7 | 0.00 | 0.00 | 0.00 | 90 | 1017.2 |
| 20260509035004 | 44 | 122 | 1.7 | 2.6 | 0.00 | 0.00 | 0.00 | 90 | 1017.2 |
| 20260509034504 | 44 | 122 | 0.0 | 0.0 | 0.00 | 0.00 | 0.00 | 89 | 1017.1 |
| 20260509034004 | 44 | 122 | 0.0 | 0.0 | 0.00 | 0.00 | 0.00 | 89 | 1017.1 |
| 20260509033504 | 44 | 122 | 0.0 | 0.0 | 0.00 | 0.00 | 0.00 | 89 | 1017.2 |
| 20260509032503 | 44 | 122 | 0.0 | 0.9 | 0.00 | 0.00 | 0.00 | 89 | 1017.2 |
| 20260509032004 | 44 | 122 | 0.0 | 0.0 | 0.00 | 0.00 | 0.00 | 89 | 1017.1 |
| 20260509030003 | 45 | 122 | 0.0 | 0.9 | 0.00 | 0.00 | 0.00 | 90 | 1017.1 |
| 20260509025004 | 45 | 122 | 0.9 | 1.7 | 0.00 | 0.00 | 0.00 | 90 | 1017.2 |
| 20260509024504 | 45 | 122 | 1.7 | 2.6 | 0.00 | 0.00 | 0.00 | 90 | 1017.2 |
| 20260509024004 | 45 | 122 | 1.7 | 2.6 | 0.00 | 0.00 | 0.00 | 90 | 1017.2 |
| 20260509023505 | 45 | 205 | 0.0 | 1.7 | 0.00 | 0.00 | 0.00 | 89 | 1017.1 |
| 20260509023004 | 44 | 215 | 0.0 | 0.0 | 0.00 | 0.00 | 0.00 | 89 | 1017.1 |
| 20260509022504 | 45 | 215 | 0.0 | 0.0 | 0.00 | 0.00 | 0.00 | 89 | 1017.1 |
| 20260509022004 | 45 | 215 | 0.0 | 0.0 | 0.00 | 0.00 | 0.00 | 88 | 1017.1 |
| 20260509021504 | 45 | 215 | 0.0 | 0.0 | 0.00 | 0.00 | 0.00 | 88 | 1017.0 |
| 20260509020504 | 45 | 215 | 0.0 | 0.0 | 0.00 | 0.00 | 0.00 | 88 | 1017.1 |
| 20260509020004 | 45 | 215 | 0.0 | 0.9 | 0.00 | 0.00 | 0.00 | 88 | 1017.1 |
| 20260509015503 | 45 | 215 | 0.0 | 1.7 | 0.00 | 0.00 | 0.00 | 88 | 1017.0 |
| 20260509015003 | 45 | 215 | 0.9 | 1.7 | 0.00 | 0.00 | 0.00 | 88 | 1017.1 |
| 20260509014503 | 46 | 215 | 0.9 | 0.9 | 0.00 | 0.00 | 0.00 | 88 | 1017.1 |
| 20260509013503 | 46 | 215 | 0.9 | 0.9 | 0.00 | 0.00 | 0.00 | 88 | 1017.1 |
| 20260509013003 | 46 | 215 | 0.0 | 1.7 | 0.00 | 0.00 | 0.00 | 88 | 1017.1 |
| 20260509012503 | 46 | 215 | 0.9 | 1.7 | 0.00 | 0.00 | 0.00 | 88 | 1017.1 |
| 20260509012005 | 46 | 215 | 0.0 | 0.9 | 0.00 | 0.00 | 0.00 | 88 | 1017.1 |
| 20260509011504 | 46 | 215 | 0.9 | 1.7 | 0.00 | 0.00 | 0.00 | 88 | 1017.1 |
| 20260509011004 | 46 | 215 | 0.9 | 1.7 | 0.00 | 0.00 | 0.00 | 87 | 1017.1 |
| 20260509010504 | 46 | 215 | 0.0 | 0.0 | 0.00 | 0.00 | 0.00 | 87 | 1017.1 |
| 20260509010004 | 46 | 215 | 0.0 | 0.0 | 0.00 | 0.00 | 0.00 | 87 | 1017.1 |
| 20260509005504 | 47 | 215 | 0.0 | 0.0 | 0.00 | 0.00 | 0.00 | 87 | 1017.1 |
| 20260509004504 | 47 | 215 | 0.0 | 0.9 | 0.00 | 0.01 | 0.00 | 87 | 1017.1 |
| 20260509004003 | 47 | 215 | 0.0 | 0.0 | 0.00 | 0.02 | 0.00 | 87 | 1017.0 |
| 20260509003504 | 47 | 215 | 0.0 | 0.0 | 0.00 | 0.02 | 0.00 | 87 | 1017.1 |
| 20260509003004 | 47 | 215 | 0.0 | 0.0 | 0.00 | 0.02 | 0.00 | 87 | 1017.1 |
| 20260509002503 | 47 | 215 | 0.0 | 0.9 | 0.00 | 0.02 | 0.00 | 87 | 1017.1 |
| 20260509002004 | 47 | 215 | 0.9 | 0.9 | 0.00 | 0.02 | 0.00 | 87 | 1017.1 |
| 20260509001003 | 47 | 215 | 0.0 | 0.0 | 0.00 | 0.02 | 0.00 | 86 | 1017.1 |
| 20260509000503 | 48 | 215 | 0.0 | 0.0 | 0.00 | 0.02 | 0.00 | 86 | 1017.1 |
| 20260509000004 | 48 | 215 | 0.0 | 0.0 | 0.00 | 0.02 | 0.00 | 86 | 1017.2 |
| 20260508235503 | 48 | 215 | 0.0 | 0.0 | 0.00 | 0.02 | 0.00 | 86 | 1017.2 |
| 20260508235003 | 48 | 215 | 0.0 | 0.9 | 0.00 | 0.02 | 0.00 | 85 | 1017.2 |
| 20260508234504 | 48 | 215 | 0.0 | 1.7 | 0.00 | 0.02 | 0.00 | 85 | 1017.1 |
| 20260508234004 | 48 | 215 | 0.9 | 1.7 | 0.00 | 0.02 | 0.00 | 85 | 1017.2 |
| 20260508233004 | 48 | 215 | 0.0 | 1.7 | 0.00 | 0.02 | 0.00 | 85 | 1017.1 |
| 20260508232003 | 49 | 215 | 0.0 | 0.9 | 0.00 | 0.02 | 0.00 | 84 | 1017.2 |
| 20260508231504 | 49 | 215 | 0.0 | 0.0 | 0.00 | 0.02 | 0.00 | 84 | 1017.2 |
| 20260508231003 | 49 | 215 | 0.0 | 1.7 | 0.00 | 0.02 | 0.00 | 84 | 1017.3 |
| 20260508230503 | 49 | 215 | 0.0 | 0.9 | 0.00 | 0.02 | 0.00 | 84 | 1017.2 |
| 20260508230004 | 49 | 215 | 0.0 | 0.0 | 0.00 | 0.02 | 0.00 | 84 | 1017.2 |
| 20260508225503 | 49 | 215 | 0.9 | 1.7 | 0.00 | 0.02 | 0.02 | 84 | 1017.2 |
| 20260508225004 | 49 | 215 | 0.9 | 1.7 | 0.00 | 0.02 | 0.02 | 83 | 1017.2 |
| 20260508224504 | 49 | 215 | 0.0 | 0.9 | 0.00 | 0.02 | 0.02 | 83 | 1017.1 |
| 20260508224003 | 50 | 215 | 0.0 | 0.9 | 0.00 | 0.02 | 0.02 | 83 | 1017.1 |
| 20260508223504 | 50 | 215 | 0.0 | 0.0 | 0.00 | 0.02 | 0.02 | 82 | 1017.1 |
| 20260508223003 | 50 | 215 | 0.0 | 0.9 | 0.00 | 0.02 | 0.02 | 82 | 1017.1 |
| 20260508222504 | 50 | 215 | 0.0 | 0.0 | 0.00 | 0.02 | 0.02 | 81 | 1017.1 |
| 20260508221503 | 50 | 215 | 0.9 | 0.9 | 0.00 | 0.02 | 0.02 | 81 | 1017.1 |
| 20260508221004 | 50 | 215 | 0.0 | 0.0 | 0.00 | 0.02 | 0.02 | 81 | 1017.1 |
| 20260508220503 | 51 | 215 | 0.0 | 0.0 | 0.00 | 0.02 | 0.02 | 80 | 1017.1 |
| 20260508220004 | 51 | 215 | 0.0 | 0.9 | 0.00 | 0.02 | 0.02 | 80 | 1017.0 |
| 20260508215504 | 51 | 215 | 0.9 | 1.7 | 0.00 | 0.02 | 0.02 | 80 | 1017.0 |
| 20260508215004 | 51 | 215 | 0.0 | 1.7 | 0.00 | 0.02 | 0.02 | 80 | 1016.9 |
| 20260508214504 | 51 | 215 | 0.0 | 1.7 | 0.00 | 0.02 | 0.02 | 79 | 1016.9 |
| 20260508213504 | 52 | 215 | 0.9 | 2.6 | 0.00 | 0.02 | 0.02 | 79 | 1016.9 |
| 20260508212503 | 52 | 215 | 0.0 | 1.7 | 0.00 | 0.02 | 0.02 | 79 | 1016.8 |
| 20260508211503 | 52 | 213 | 1.7 | 2.6 | 0.00 | 0.02 | 0.02 | 79 | 1016.7 |
| 20260508211003 | 52 | 213 | 1.7 | 2.6 | 0.00 | 0.02 | 0.02 | 79 | 1016.7 |
| 20260508210003 | 53 | 212 | 2.6 | 2.6 | 0.00 | 0.02 | 0.02 | 78 | 1016.7 |
| 20260508205003 | 53 | 216 | 0.9 | 1.7 | 0.00 | 0.02 | 0.02 | 76 | 1016.4 |
| 20260508204003 | 54 | 216 | 0.0 | 0.0 | 0.00 | 0.02 | 0.02 | 75 | 1016.3 |
| 20260508203504 | 54 | 216 | 0.0 | 0.0 | 0.00 | 0.02 | 0.02 | 75 | 1016.3 |
| 20260508203004 | 55 | 216 | 0.0 | 0.0 | 0.00 | 0.02 | 0.02 | 74 | 1016.3 |
| 20260508202504 | 55 | 216 | 0.0 | 0.9 | 0.00 | 0.02 | 0.02 | 74 | 1016.2 |
| 20260508202004 | 55 | 216 | 0.9 | 1.7 | 0.00 | 0.02 | 0.02 | 73 | 1016.1 |
| 20260508200504 | 56 | 216 | 0.0 | 1.7 | 0.00 | 0.02 | 0.02 | 72 | 1016.0 |
| 20260508200004 | 57 | 216 | 0.9 | 2.6 | 0.00 | 0.02 | 0.02 | 72 | 1016.0 |
| 20260508195503 | 57 | 216 | 0.9 | 2.6 | 0.00 | 0.02 | 0.02 | 71 | 1015.9 |
| 20260508195003 | 57 | 215 | 1.7 | 2.6 | 0.00 | 0.02 | 0.02 | 70 | 1015.9 |
| 20260508193503 | 58 | 215 | 1.7 | 2.6 | 0.00 | 0.02 | 0.02 | 69 | 1015.8 |
| 20260508193004 | 58 | 213 | 0.9 | 1.7 | 0.00 | 0.02 | 0.02 | 68 | 1015.8 |
| 20260508192504 | 58 | 207 | 1.7 | 2.6 | 0.00 | 0.02 | 0.02 | 68 | 1015.7 |
| 20260508191504 | 59 | 210 | 2.6 | 5.2 | 0.00 | 0.02 | 0.02 | 67 | 1015.5 |
| 20260508191004 | 59 | 221 | 1.7 | 4.3 | 0.00 | 0.02 | 0.02 | 66 | 1015.5 |
| 20260508190503 | 60 | 222 | 2.6 | 5.2 | 0.00 | 0.02 | 0.02 | 66 | 1015.4 |
| 20260508190004 | 60 | 231 | 4.3 | 6.1 | 0.00 | 0.02 | 0.02 | 65 | 1015.3 |
| 20260508185503 | 60 | 248 | 2.6 | 5.2 | 0.00 | 0.02 | 0.02 | 64 | 1015.2 |
| 20260508184504 | 61 | 253 | 4.3 | 6.1 | 0.00 | 0.02 | 0.02 | 62 | 1015.2 |
| 20260508184003 | 62 | 238 | 5.2 | 8.7 | 0.00 | 0.02 | 0.02 | 60 | 1015.2 |
| 20260508183503 | 62 | 211 | 1.7 | 4.3 | 0.00 | 0.02 | 0.02 | 56 | 1015.1 |
| 20260508183004 | 63 | 208 | 1.7 | 5.2 | 0.00 | 0.02 | 0.02 | 56 | 1015.1 |
| 20260508182504 | 63 | 207 | 2.6 | 2.6 | 0.00 | 0.02 | 0.02 | 55 | 1015.0 |
| 20260508182004 | 63 | 207 | 0.9 | 2.6 | 0.00 | 0.02 | 0.02 | 55 | 1015.0 |
| 20260508181004 | 64 | 210 | 5.2 | 6.1 | 0.00 | 0.02 | 0.02 | 54 | 1014.9 |
| 20260508180504 | 64 | 199 | 4.3 | 5.2 | 0.00 | 0.02 | 0.02 | 53 | 1014.9 |
| 20260508180004 | 64 | 197 | 2.6 | 5.2 | 0.00 | 0.02 | 0.02 | 51 | 1014.8 |
| 20260508175503 | 65 | 202 | 4.3 | 6.1 | 0.00 | 0.02 | 0.02 | 51 | 1014.8 |
| 20260508175004 | 65 | 228 | 3.5 | 5.2 | 0.00 | 0.02 | 0.02 | 51 | 1014.8 |
| 20260508174503 | 65 | 188 | 3.5 | 6.1 | 0.00 | 0.02 | 0.02 | 50 | 1014.7 |
| 20260508174004 | 66 | 200 | 2.6 | 5.2 | 0.00 | 0.02 | 0.02 | 49 | 1014.7 |
| 20260508173504 | 66 | 207 | 2.6 | 4.3 | 0.00 | 0.02 | 0.02 | 49 | 1014.6 |
| 20260508173004 | 66 | 207 | 1.7 | 7.0 | 0.00 | 0.02 | 0.02 | 48 | 1014.6 |
| 20260508172503 | 67 | 176 | 1.7 | 7.0 | 0.00 | 0.02 | 0.02 | 48 | 1014.6 |
| 20260508172003 | 67 | 182 | 2.6 | 5.2 | 0.00 | 0.02 | 0.02 | 47 | 1014.5 |
| 20260508171504 | 67 | 176 | 4.3 | 6.1 | 0.00 | 0.02 | 0.02 | 47 | 1014.5 |
| 20260508171003 | 67 | 169 | 2.6 | 6.1 | 0.00 | 0.02 | 0.02 | 48 | 1014.4 |
| 20260508170503 | 67 | 210 | 2.6 | 4.3 | 0.00 | 0.02 | 0.02 | 49 | 1014.3 |
| 20260508170003 | 67 | 193 | 2.6 | 6.1 | 0.00 | 0.02 | 0.02 | 48 | 1014.3 |
| 20260508165504 | 67 | 190 | 2.6 | 6.1 | 0.00 | 0.02 | 0.02 | 48 | 1014.2 |
| 20260508165003 | 67 | 127 | 2.6 | 6.1 | 0.00 | 0.02 | 0.02 | 47 | 1014.2 |
| 20260508164504 | 67 | 119 | 1.7 | 6.1 | 0.00 | 0.02 | 0.02 | 47 | 1014.3 |
| 20260508164003 | 67 | 197 | 0.9 | 5.2 | 0.00 | 0.02 | 0.02 | 49 | 1014.3 |
| 20260508163503 | 67 | 180 | 1.7 | 8.7 | 0.00 | 0.02 | 0.02 | 49 | 1014.3 |
| 20260508163004 | 67 | 253 | 2.6 | 6.1 | 0.00 | 0.02 | 0.02 | 50 | 1014.3 |
| 20260508162504 | 67 | 229 | 3.5 | 7.8 | 0.00 | 0.02 | 0.02 | 50 | 1014.3 |
| 20260508162003 | 67 | 207 | 4.3 | 7.8 | 0.00 | 0.02 | 0.02 | 48 | 1014.3 |
| 20260508161504 | 66 | 156 | 3.5 | 7.8 | 0.00 | 0.02 | 0.02 | 50 | 1014.3 |
| 20260508160503 | 66 | 190 | 2.6 | 6.1 | 0.00 | 0.02 | 0.02 | 50 | 1014.4 |
| 20260508160004 | 65 | 216 | 4.3 | 5.2 | 0.00 | 0.02 | 0.02 | 49 | 1014.4 |
| 20260508155503 | 66 | 214 | 4.3 | 8.7 | 0.00 | 0.02 | 0.02 | 49 | 1014.4 |
| 20260508155004 | 66 | 181 | 5.2 | 10.4 | 0.00 | 0.02 | 0.02 | 50 | 1014.4 |
| 20260508154503 | 66 | 147 | 5.2 | 8.7 | 0.00 | 0.02 | 0.02 | 49 | 1014.4 |
| 20260508154003 | 66 | 191 | 6.1 | 8.7 | 0.00 | 0.02 | 0.02 | 50 | 1014.5 |
| 20260508153004 | 65 | 136 | 5.2 | 8.7 | 0.00 | 0.02 | 0.02 | 51 | 1014.5 |
| 20260508152503 | 65 | 158 | 6.1 | 10.4 | 0.00 | 0.02 | 0.02 | 49 | 1014.5 |
| 20260508152003 | 65 | 126 | 4.3 | 7.0 | 0.00 | 0.02 | 0.02 | 51 | 1014.4 |
| 20260508151503 | 65 | 134 | 2.6 | 10.4 | 0.00 | 0.02 | 0.02 | 51 | 1014.4 |